Mayo, Canada
Current Conditions -  °F | °C
As of 4:00 PM on Thursday 18 Dec 2014 (Local Time) from CYMA Reporting Station
Broken Clouds Broken Clouds  
Wind Chill: 11°   Ceiling: 2000
Heat Index: 18°   Visibility: 4mi
Dew Point: 14°   Wind: 5mph
Humidity: 86%   Direction: 40°NE
Pressure: 29.71"   Gusts: NA
Location:  63.6°N, 135.88°W
Report Text: CYMA 190000Z 04004KT 020V080 4SM SCT012 BKN020 M08/M10 A2971 RMK ST3SC4 CLIMAT -7.8/-12.2/TR CM/TR MWE SOG 14 VIS E 10 SLP102
Loading
Personal Weather Stations






























Interactive Weather Map New forecast layout! Learn more

10-Day Weather Forecast

Advertisements
Track Severe Weather on mobile